sensor_id;sensor_type;location;lat;lon;timestamp;pressure;altitude;pressure_sealevel;temperature;humidity
78673;BME280;67988;60.086;30.354;2023-08-17T00:01:20;101579.06;;;21.90;79.53
78673;BME280;67988;60.086;30.354;2023-08-17T00:03:48;101556.34;;;21.91;79.12
78673;BME280;67988;60.086;30.354;2023-08-17T00:06:16;101539.75;;;21.94;79.13
78673;BME280;67988;60.086;30.354;2023-08-17T00:08:43;101557.22;;;21.99;79.27
78673;BME280;67988;60.086;30.354;2023-08-17T00:11:10;101552.44;;;21.93;79.56
78673;BME280;67988;60.086;30.354;2023-08-17T00:13:37;101626.97;;;21.16;83.35
78673;BME280;67988;60.086;30.354;2023-08-17T00:16:04;101595.66;;;20.04;100.00
78673;BME280;67988;60.086;30.354;2023-08-17T00:18:32;101571.75;;;19.91;100.00
78673;BME280;67988;60.086;30.354;2023-08-17T00:21:00;62126.16;;;-143.94;100.00
78673;BME280;67988;60.086;30.354;2023-08-17T00:23:29;62126.16;;;-143.94;100.00
78673;BME280;67988;60.086;30.354;2023-08-17T00:25:56;62126.16;;;-143.94;100.00
78673;BME280;67988;60.086;30.354;2023-08-17T00:28:23;62126.16;;;-143.94;100.00
78673;BME280;67988;60.086;30.354;2023-08-17T00:30:51;62126.16;;;-143.94;100.00
78673;BME280;67988;60.086;30.354;2023-08-17T00:33:18;62126.16;;;-143.94;100.00
78673;BME280;67988;60.086;30.354;2023-08-17T00:35:46;62126.16;;;-143.94;100.00
78673;BME280;67988;60.086;30.354;2023-08-17T00:38:15;62126.16;;;-143.94;100.00
78673;BME280;67988;60.086;30.354;2023-08-17T00:40:42;62126.16;;;-143.94;100.00
78673;BME280;67988;60.086;30.354;2023-08-17T00:43:09;62126.16;;;-143.94;100.00
78673;BME280;67988;60.086;30.354;2023-08-17T00:45:36;62126.16;;;-143.94;100.00
78673;BME280;67988;60.086;30.354;2023-08-17T00:48:05;62126.16;;;-143.94;100.00
78673;BME280;67988;60.086;30.354;2023-08-17T00:50:34;62126.16;;;-143.94;100.00
78673;BME280;67988;60.086;30.354;2023-08-17T00:53:02;62126.16;;;-143.94;100.00
78673;BME280;67988;60.086;30.354;2023-08-17T00:55:31;62126.16;;;-143.94;100.00
78673;BME280;67988;60.086;30.354;2023-08-17T00:57:59;62126.16;;;-143.94;100.00
78673;BME280;67988;60.086;30.354;2023-08-17T01:00:27;62126.16;;;-143.94;100.00
78673;BME280;67988;60.086;30.354;2023-08-17T01:02:57;62126.16;;;-143.94;100.00
78673;BME280;67988;60.086;30.354;2023-08-17T01:05:24;62126.16;;;-143.94;100.00
78673;BME280;67988;60.086;30.354;2023-08-17T01:07:55;62126.16;;;-143.94;100.00
78673;BME280;67988;60.086;30.354;2023-08-17T01:10:22;62126.16;;;-143.94;100.00
78673;BME280;67988;60.086;30.354;2023-08-17T01:12:52;62126.16;;;-143.94;100.00
78673;BME280;67988;60.086;30.354;2023-08-17T01:15:26;62126.16;;;-143.94;100.00
78673;BME280;67988;60.086;30.354;2023-08-17T01:17:59;62126.16;;;-143.94;100.00
78673;BME280;67988;60.086;30.354;2023-08-17T01:20:29;62126.16;;;-143.94;100.00
78673;BME280;67988;60.086;30.354;2023-08-17T01:23:03;62126.16;;;-143.94;100.00
78673;BME280;67988;60.086;30.354;2023-08-17T01:25:31;62126.16;;;-143.94;100.00
78673;BME280;67988;60.086;30.354;2023-08-17T01:28:02;62126.16;;;-143.94;100.00
78673;BME280;67988;60.086;30.354;2023-08-17T01:30:39;62126.16;;;-143.94;100.00
78673;BME280;67988;60.086;30.354;2023-08-17T01:33:11;62126.16;;;-143.94;100.00
78673;BME280;67988;60.086;30.354;2023-08-17T01:35:46;62126.16;;;-143.94;100.00
78673;BME280;67988;60.086;30.354;2023-08-17T01:38:18;62126.16;;;-143.94;100.00
78673;BME280;67988;60.086;30.354;2023-08-17T01:40:48;62126.16;;;-143.94;100.00
78673;BME280;67988;60.086;30.354;2023-08-17T01:43:17;62126.16;;;-143.94;100.00
78673;BME280;67988;60.086;30.354;2023-08-17T01:45:44;62126.16;;;-143.94;100.00
78673;BME280;67988;60.086;30.354;2023-08-17T01:48:11;62126.16;;;-143.94;100.00
78673;BME280;67988;60.086;30.354;2023-08-17T01:50:39;62126.16;;;-143.94;100.00
78673;BME280;67988;60.086;30.354;2023-08-17T01:53:06;62126.16;;;-143.94;100.00
78673;BME280;67988;60.086;30.354;2023-08-17T01:55:35;62126.16;;;-143.94;100.00
78673;BME280;67988;60.086;30.354;2023-08-17T01:58:06;62126.16;;;-143.94;100.00
78673;BME280;67988;60.086;30.354;2023-08-17T02:00:33;62126.16;;;-143.94;100.00
78673;BME280;67988;60.086;30.354;2023-08-17T02:03:00;62126.16;;;-143.94;100.00
78673;BME280;67988;60.086;30.354;2023-08-17T02:05:28;62126.16;;;-143.94;100.00
78673;BME280;67988;60.086;30.354;2023-08-17T02:07:55;62126.16;;;-143.94;100.00
78673;BME280;67988;60.086;30.354;2023-08-17T02:10:22;62126.16;;;-143.94;100.00
78673;BME280;67988;60.086;30.354;2023-08-17T02:12:51;62126.16;;;-143.94;100.00
78673;BME280;67988;60.086;30.354;2023-08-17T02:15:18;62126.16;;;-143.94;100.00
78673;BME280;67988;60.086;30.354;2023-08-17T02:17:45;62126.16;;;-143.94;100.00
78673;BME280;67988;60.086;30.354;2023-08-17T02:20:12;62126.16;;;-143.94;100.00
78673;BME280;67988;60.086;30.354;2023-08-17T02:22:42;62126.16;;;-143.94;100.00
78673;BME280;67988;60.086;30.354;2023-08-17T02:25:09;62126.16;;;-143.94;100.00
78673;BME280;67988;60.086;30.354;2023-08-17T02:27:36;62126.16;;;-143.94;100.00
78673;BME280;67988;60.086;30.354;2023-08-17T02:30:06;62126.16;;;-143.94;100.00
78673;BME280;67988;60.086;30.354;2023-08-17T02:32:33;62126.16;;;-143.94;100.00
78673;BME280;67988;60.086;30.354;2023-08-17T02:35:01;62126.16;;;-143.94;100.00
78673;BME280;67988;60.086;30.354;2023-08-17T02:37:28;62126.16;;;-143.94;100.00
78673;BME280;67988;60.086;30.354;2023-08-17T02:39:55;62126.16;;;-143.94;100.00
78673;BME280;67988;60.086;30.354;2023-08-17T02:42:22;62126.16;;;-143.94;100.00
78673;BME280;67988;60.086;30.354;2023-08-17T02:44:50;62126.16;;;-143.94;100.00
78673;BME280;67988;60.086;30.354;2023-08-17T02:47:18;62126.16;;;-143.94;100.00
78673;BME280;67988;60.086;30.354;2023-08-17T02:49:47;62126.16;;;-143.94;100.00
78673;BME280;67988;60.086;30.354;2023-08-17T02:52:15;62126.16;;;-143.94;100.00
78673;BME280;67988;60.086;30.354;2023-08-17T02:54:42;62126.16;;;-143.94;100.00
78673;BME280;67988;60.086;30.354;2023-08-17T02:57:09;62126.16;;;-143.94;100.00
78673;BME280;67988;60.086;30.354;2023-08-17T02:59:36;62126.16;;;-143.94;100.00
78673;BME280;67988;60.086;30.354;2023-08-17T03:02:04;62126.16;;;-143.94;100.00
78673;BME280;67988;60.086;30.354;2023-08-17T03:04:36;62126.16;;;-143.94;100.00
78673;BME280;67988;60.086;30.354;2023-08-17T03:07:03;62126.16;;;-143.94;100.00
78673;BME280;67988;60.086;30.354;2023-08-17T03:09:30;62126.16;;;-143.94;100.00
78673;BME280;67988;60.086;30.354;2023-08-17T03:11:57;62126.16;;;-143.94;100.00
78673;BME280;67988;60.086;30.354;2023-08-17T03:14:25;62126.16;;;-143.94;100.00
78673;BME280;67988;60.086;30.354;2023-08-17T03:16:52;62126.16;;;-143.94;100.00
78673;BME280;67988;60.086;30.354;2023-08-17T03:19:19;62126.16;;;-143.94;100.00
78673;BME280;67988;60.086;30.354;2023-08-17T03:21:48;62126.16;;;-143.94;100.00
78673;BME280;67988;60.086;30.354;2023-08-17T03:24:15;62126.16;;;-143.94;100.00
78673;BME280;67988;60.086;30.354;2023-08-17T03:26:42;62126.16;;;-143.94;100.00
78673;BME280;67988;60.086;30.354;2023-08-17T03:29:09;62126.16;;;-143.94;100.00
78673;BME280;67988;60.086;30.354;2023-08-17T03:31:36;62126.16;;;-143.94;100.00
78673;BME280;67988;60.086;30.354;2023-08-17T03:34:06;62126.16;;;-143.94;100.00
78673;BME280;67988;60.086;30.354;2023-08-17T03:36:34;62126.16;;;-143.94;100.00
78673;BME280;67988;60.086;30.354;2023-08-17T03:39:02;62126.16;;;-143.94;100.00
78673;BME280;67988;60.086;30.354;2023-08-17T03:41:30;62126.16;;;-143.94;100.00
78673;BME280;67988;60.086;30.354;2023-08-17T03:43:57;62126.16;;;-143.94;100.00
78673;BME280;67988;60.086;30.354;2023-08-17T03:46:24;62126.16;;;-143.94;100.00
78673;BME280;67988;60.086;30.354;2023-08-17T03:48:51;62126.16;;;-143.94;100.00
78673;BME280;67988;60.086;30.354;2023-08-17T03:51:19;62126.16;;;-143.94;100.00
78673;BME280;67988;60.086;30.354;2023-08-17T03:53:46;62126.16;;;-143.94;100.00
78673;BME280;67988;60.086;30.354;2023-08-17T03:56:14;62126.16;;;-143.94;100.00
78673;BME280;67988;60.086;30.354;2023-08-17T03:58:42;62126.16;;;-143.94;100.00
78673;BME280;67988;60.086;30.354;2023-08-17T04:01:09;62126.16;;;-143.94;100.00
78673;BME280;67988;60.086;30.354;2023-08-17T04:03:39;62126.16;;;-143.94;100.00
78673;BME280;67988;60.086;30.354;2023-08-17T04:06:08;62126.16;;;-143.94;100.00
78673;BME280;67988;60.086;30.354;2023-08-17T04:08:36;62126.16;;;-143.94;100.00
78673;BME280;67988;60.086;30.354;2023-08-17T04:11:04;62126.16;;;-143.94;100.00
78673;BME280;67988;60.086;30.354;2023-08-17T04:13:33;62126.16;;;-143.94;100.00
78673;BME280;67988;60.086;30.354;2023-08-17T04:16:00;62126.16;;;-143.94;100.00
78673;BME280;67988;60.086;30.354;2023-08-17T04:18:27;62126.16;;;-143.94;100.00
78673;BME280;67988;60.086;30.354;2023-08-17T04:20:54;62126.16;;;-143.94;100.00
78673;BME280;67988;60.086;30.354;2023-08-17T04:23:22;62126.16;;;-143.94;100.00
78673;BME280;67988;60.086;30.354;2023-08-17T04:25:49;62126.16;;;-143.94;100.00
78673;BME280;67988;60.086;30.354;2023-08-17T04:28:16;62126.16;;;-143.94;100.00
78673;BME280;67988;60.086;30.354;2023-08-17T04:30:46;62126.16;;;-143.94;100.00
78673;BME280;67988;60.086;30.354;2023-08-17T04:33:13;62126.16;;;-143.94;100.00
78673;BME280;67988;60.086;30.354;2023-08-17T04:35:40;62126.16;;;-143.94;100.00
78673;BME280;67988;60.086;30.354;2023-08-17T04:38:07;62126.16;;;-143.94;100.00
78673;BME280;67988;60.086;30.354;2023-08-17T04:40:37;62126.16;;;-143.94;100.00
78673;BME280;67988;60.086;30.354;2023-08-17T04:43:04;62126.16;;;-143.94;100.00
78673;BME280;67988;60.086;30.354;2023-08-17T04:45:31;62126.16;;;-143.94;100.00
78673;BME280;67988;60.086;30.354;2023-08-17T04:48:00;62126.16;;;-143.94;100.00
78673;BME280;67988;60.086;30.354;2023-08-17T04:50:29;62126.16;;;-143.94;100.00
78673;BME280;67988;60.086;30.354;2023-08-17T04:52:56;62126.16;;;-143.94;100.00
78673;BME280;67988;60.086;30.354;2023-08-17T04:55:23;62126.16;;;-143.94;100.00
78673;BME280;67988;60.086;30.354;2023-08-17T04:57:50;62126.16;;;-143.94;100.00
78673;BME280;67988;60.086;30.354;2023-08-17T05:00:18;62126.16;;;-143.94;100.00
78673;BME280;67988;60.086;30.354;2023-08-17T05:02:52;62126.16;;;-143.94;100.00
78673;BME280;67988;60.086;30.354;2023-08-17T05:05:20;62126.16;;;-143.94;100.00
78673;BME280;67988;60.086;30.354;2023-08-17T05:07:47;62126.16;;;-143.94;100.00
78673;BME280;67988;60.086;30.354;2023-08-17T05:10:15;62126.16;;;-143.94;100.00
78673;BME280;67988;60.086;30.354;2023-08-17T05:12:42;62126.16;;;-143.94;100.00
78673;BME280;67988;60.086;30.354;2023-08-17T05:15:10;62126.16;;;-143.94;100.00
78673;BME280;67988;60.086;30.354;2023-08-17T05:17:36;62126.16;;;-143.94;100.00
78673;BME280;67988;60.086;30.354;2023-08-17T05:20:05;62126.16;;;-143.94;100.00
78673;BME280;67988;60.086;30.354;2023-08-17T05:22:35;62126.16;;;-143.94;100.00
78673;BME280;67988;60.086;30.354;2023-08-17T05:25:03;62126.16;;;-143.94;100.00
78673;BME280;67988;60.086;30.354;2023-08-17T05:27:33;62126.16;;;-143.94;100.00
78673;BME280;67988;60.086;30.354;2023-08-17T05:30:00;62126.16;;;-143.94;100.00
78673;BME280;67988;60.086;30.354;2023-08-17T05:32:28;62126.16;;;-143.94;100.00
78673;BME280;67988;60.086;30.354;2023-08-17T05:34:55;62126.16;;;-143.94;100.00
78673;BME280;67988;60.086;30.354;2023-08-17T05:37:22;62126.16;;;-143.94;100.00
78673;BME280;67988;60.086;30.354;2023-08-17T05:39:51;62126.16;;;-143.94;100.00
78673;BME280;67988;60.086;30.354;2023-08-17T05:42:18;62126.16;;;-143.94;100.00
78673;BME280;67988;60.086;30.354;2023-08-17T05:44:45;62126.16;;;-143.94;100.00
78673;BME280;67988;60.086;30.354;2023-08-17T05:47:12;62126.16;;;-143.94;100.00
78673;BME280;67988;60.086;30.354;2023-08-17T05:49:44;62126.16;;;-143.94;100.00
78673;BME280;67988;60.086;30.354;2023-08-17T05:52:12;62126.16;;;-143.94;100.00
78673;BME280;67988;60.086;30.354;2023-08-17T05:54:39;62126.16;;;-143.94;100.00
78673;BME280;67988;60.086;30.354;2023-08-17T05:57:08;62126.16;;;-143.94;100.00
78673;BME280;67988;60.086;30.354;2023-08-17T05:59:36;62126.16;;;-143.94;100.00
78673;BME280;67988;60.086;30.354;2023-08-17T06:02:03;62126.16;;;-143.94;100.00
78673;BME280;67988;60.086;30.354;2023-08-17T06:04:30;62126.16;;;-143.94;100.00
78673;BME280;67988;60.086;30.354;2023-08-17T06:06:57;62126.16;;;-143.94;100.00
78673;BME280;67988;60.086;30.354;2023-08-17T06:09:25;62126.16;;;-143.94;100.00
78673;BME280;67988;60.086;30.354;2023-08-17T21:23:16;102232.59;;;17.06;81.19
78673;BME280;67988;60.086;30.354;2023-08-17T21:25:48;102236.38;;;17.15;81.45
78673;BME280;67988;60.086;30.354;2023-08-17T21:28:15;102240.16;;;17.24;81.82
78673;BME280;67988;60.086;30.354;2023-08-17T21:30:42;102242.09;;;17.33;81.12
78673;BME280;67988;60.086;30.354;2023-08-17T21:33:10;102238.91;;;17.39;80.04
78673;BME280;67988;60.086;30.354;2023-08-17T21:35:37;102241.31;;;17.42;79.66
78673;BME280;67988;60.086;30.354;2023-08-17T21:38:04;102241.19;;;17.43;79.36
78673;BME280;67988;60.086;30.354;2023-08-17T21:40:33;102246.59;;;17.43;79.27
78673;BME280;67988;60.086;30.354;2023-08-17T21:43:00;102245.59;;;17.44;78.85
78673;BME280;67988;60.086;30.354;2023-08-17T21:45:27;102253.53;;;17.46;78.54
78673;BME280;67988;60.086;30.354;2023-08-17T21:47:54;102256.09;;;17.47;78.22
78673;BME280;67988;60.086;30.354;2023-08-17T21:50:21;102257.56;;;17.51;78.06
78673;BME280;67988;60.086;30.354;2023-08-17T21:52:48;102271.38;;;17.58;77.34
78673;BME280;67988;60.086;30.354;2023-08-17T21:55:16;102267.97;;;17.56;77.37
78673;BME280;67988;60.086;30.354;2023-08-17T21:57:45;102273.09;;;17.59;76.44
78673;BME280;67988;60.086;30.354;2023-08-17T22:00:13;102283.63;;;17.62;76.42
78673;BME280;67988;60.086;30.354;2023-08-17T22:02:41;102272.13;;;17.60;76.14
78673;BME280;67988;60.086;30.354;2023-08-17T22:05:08;102286.53;;;17.59;76.34
78673;BME280;67988;60.086;30.354;2023-08-17T22:07:35;102290.00;;;17.61;76.15
78673;BME280;67988;60.086;30.354;2023-08-17T22:10:02;102280.34;;;17.47;76.38
78673;BME280;67988;60.086;30.354;2023-08-17T22:12:29;102294.41;;;17.51;76.30
78673;BME280;67988;60.086;30.354;2023-08-17T22:14:58;102298.09;;;17.50;76.58
78673;BME280;67988;60.086;30.354;2023-08-17T22:17:25;102298.31;;;17.47;76.51
78673;BME280;67988;60.086;30.354;2023-08-17T22:19:52;102295.78;;;17.45;76.33
78673;BME280;67988;60.086;30.354;2023-08-17T22:22:19;102303.00;;;17.45;76.00
78673;BME280;67988;60.086;30.354;2023-08-17T22:24:46;102310.19;;;17.44;76.36
78673;BME280;67988;60.086;30.354;2023-08-17T22:27:14;102302.50;;;17.40;75.89
78673;BME280;67988;60.086;30.354;2023-08-17T22:29:41;102313.28;;;17.40;76.03
78673;BME280;67988;60.086;30.354;2023-08-17T22:32:09;102312.16;;;17.42;75.65
78673;BME280;67988;60.086;30.354;2023-08-17T22:34:37;102317.06;;;17.37;75.97
78673;BME280;67988;60.086;30.354;2023-08-17T22:37:04;102298.34;;;17.25;75.74
78673;BME280;67988;60.086;30.354;2023-08-17T22:39:31;102320.00;;;17.34;75.80
78673;BME280;67988;60.086;30.354;2023-08-17T22:41:58;102322.69;;;17.34;75.95
78673;BME280;67988;60.086;30.354;2023-08-17T22:44:25;102315.72;;;17.32;75.98
78673;BME280;67988;60.086;30.354;2023-08-17T22:46:53;102330.41;;;17.28;76.42
78673;BME280;67988;60.086;30.354;2023-08-17T22:49:21;102329.66;;;17.26;76.35
78673;BME280;67988;60.086;30.354;2023-08-17T22:51:48;102318.28;;;17.22;76.79
78673;BME280;67988;60.086;30.354;2023-08-17T22:54:16;102330.63;;;17.25;76.39
78673;BME280;67988;60.086;30.354;2023-08-17T22:56:43;102327.59;;;17.18;76.74
78673;BME280;67988;60.086;30.354;2023-08-17T22:59:10;102334.19;;;17.14;76.98
78673;BME280;67988;60.086;30.354;2023-08-17T23:01:37;102329.19;;;17.09;76.99
78673;BME280;67988;60.086;30.354;2023-08-17T23:04:05;102338.22;;;17.08;77.46
78673;BME280;67988;60.086;30.354;2023-08-17T23:06:34;102336.50;;;17.07;77.56
78673;BME280;67988;60.086;30.354;2023-08-17T23:09:01;102340.31;;;17.05;77.65
78673;BME280;67988;60.086;30.354;2023-08-17T23:11:28;102332.13;;;16.95;78.38
78673;BME280;67988;60.086;30.354;2023-08-17T23:13:55;102334.91;;;16.94;77.92
78673;BME280;67988;60.086;30.354;2023-08-17T23:16:23;102345.78;;;16.92;78.47
78673;BME280;67988;60.086;30.354;2023-08-17T23:18:50;102346.91;;;16.90;78.38
78673;BME280;67988;60.086;30.354;2023-08-17T23:21:17;102349.09;;;16.85;78.38
78673;BME280;67988;60.086;30.354;2023-08-17T23:23:46;102346.53;;;16.83;78.93
78673;BME280;67988;60.086;30.354;2023-08-17T23:26:13;102349.31;;;16.82;78.71
78673;BME280;67988;60.086;30.354;2023-08-17T23:28:40;102351.41;;;16.78;79.17
78673;BME280;67988;60.086;30.354;2023-08-17T23:31:07;102352.25;;;16.79;79.33
78673;BME280;67988;60.086;30.354;2023-08-17T23:33:34;102344.31;;;16.77;79.20
78673;BME280;67988;60.086;30.354;2023-08-17T23:36:02;102354.56;;;16.72;79.48
78673;BME280;67988;60.086;30.354;2023-08-17T23:38:29;102348.69;;;16.67;79.37
78673;BME280;67988;60.086;30.354;2023-08-17T23:40:57;102356.97;;;16.64;79.63
78673;BME280;67988;60.086;30.354;2023-08-17T23:43:25;102363.22;;;16.64;79.99
78673;BME280;67988;60.086;30.354;2023-08-17T23:45:52;102360.53;;;16.64;79.97
78673;BME280;67988;60.086;30.354;2023-08-17T23:48:19;102369.03;;;16.58;80.00
78673;BME280;67988;60.086;30.354;2023-08-17T23:50:46;102362.06;;;16.56;80.15
78673;BME280;67988;60.086;30.354;2023-08-17T23:53:13;102373.06;;;16.53;80.06
78673;BME280;67988;60.086;30.354;2023-08-17T23:55:40;102370.38;;;16.53;80.19
78673;BME280;67988;60.086;30.354;2023-08-17T23:58:09;102372.31;;;16.51;80.23
